sensor_id;sensor_type;location;lat;lon;timestamp;P1;durP1;ratioP1;P2;durP2;ratioP2
70707;SDS011;58277;47.316;18.908;2022-11-23T00:01:45;30.27;;;11.65;;
70707;SDS011;58277;47.316;18.908;2022-11-23T00:04:09;25.10;;;9.27;;
70707;SDS011;58277;47.316;18.908;2022-11-23T00:06:34;26.60;;;9.43;;
70707;SDS011;58277;47.316;18.908;2022-11-23T00:08:57;29.75;;;11.07;;
70707;SDS011;58277;47.316;18.908;2022-11-23T00:11:20;26.75;;;9.70;;
70707;SDS011;58277;47.316;18.908;2022-11-23T00:13:44;29.45;;;10.02;;
70707;SDS011;58277;47.316;18.908;2022-11-23T00:16:08;30.38;;;10.68;;
70707;SDS011;58277;47.316;18.908;2022-11-23T00:18:33;26.07;;;9.90;;
70707;SDS011;58277;47.316;18.908;2022-11-23T00:20:56;28.23;;;10.75;;
70707;SDS011;58277;47.316;18.908;2022-11-23T00:23:19;29.40;;;10.48;;
70707;SDS011;58277;47.316;18.908;2022-11-23T00:25:43;31.65;;;11.52;;
70707;SDS011;58277;47.316;18.908;2022-11-23T00:28:07;31.95;;;10.68;;
70707;SDS011;58277;47.316;18.908;2022-11-23T00:30:29;27.33;;;10.50;;
70707;SDS011;58277;47.316;18.908;2022-11-23T00:32:53;30.25;;;11.68;;
70707;SDS011;58277;47.316;18.908;2022-11-23T00:35:15;29.40;;;10.40;;
70707;SDS011;58277;47.316;18.908;2022-11-23T00:37:38;32.97;;;11.80;;
70707;SDS011;58277;47.316;18.908;2022-11-23T00:40:01;22.73;;;8.45;;
70707;SDS011;58277;47.316;18.908;2022-11-23T00:42:23;28.13;;;11.00;;
70707;SDS011;58277;47.316;18.908;2022-11-23T00:44:46;25.92;;;9.82;;
70707;SDS011;58277;47.316;18.908;2022-11-23T00:47:09;29.85;;;10.70;;
70707;SDS011;58277;47.316;18.908;2022-11-23T00:49:32;21.25;;;8.13;;
70707;SDS011;58277;47.316;18.908;2022-11-23T00:51:55;26.52;;;9.80;;
70707;SDS011;58277;47.316;18.908;2022-11-23T00:54:18;27.97;;;10.97;;
70707;SDS011;58277;47.316;18.908;2022-11-23T00:56:40;22.02;;;8.43;;
70707;SDS011;58277;47.316;18.908;2022-11-23T00:59:03;26.60;;;9.82;;
70707;SDS011;58277;47.316;18.908;2022-11-23T01:01:27;27.60;;;10.18;;
70707;SDS011;58277;47.316;18.908;2022-11-23T01:03:53;25.65;;;9.93;;
70707;SDS011;58277;47.316;18.908;2022-11-23T01:06:24;26.60;;;10.10;;
70707;SDS011;58277;47.316;18.908;2022-11-23T01:08:53;25.25;;;10.85;;
70707;SDS011;58277;47.316;18.908;2022-11-23T01:11:17;27.80;;;11.05;;
70707;SDS011;58277;47.316;18.908;2022-11-23T01:13:41;27.45;;;10.82;;
70707;SDS011;58277;47.316;18.908;2022-11-23T01:16:09;28.00;;;11.02;;
70707;SDS011;58277;47.316;18.908;2022-11-23T01:18:45;25.20;;;9.90;;
70707;SDS011;58277;47.316;18.908;2022-11-23T01:21:08;23.23;;;8.45;;
70707;SDS011;58277;47.316;18.908;2022-11-23T01:23:33;25.73;;;9.77;;
70707;SDS011;58277;47.316;18.908;2022-11-23T01:26:02;17.50;;;6.55;;
70707;SDS011;58277;47.316;18.908;2022-11-23T01:28:26;25.27;;;9.90;;
70707;SDS011;58277;47.316;18.908;2022-11-23T01:30:49;19.23;;;7.53;;
70707;SDS011;58277;47.316;18.908;2022-11-23T01:33:11;22.75;;;9.05;;
70707;SDS011;58277;47.316;18.908;2022-11-23T01:35:34;24.02;;;9.45;;
70707;SDS011;58277;47.316;18.908;2022-11-23T01:38:18;18.60;;;7.75;;
70707;SDS011;58277;47.316;18.908;2022-11-23T01:40:42;24.55;;;10.20;;
70707;SDS011;58277;47.316;18.908;2022-11-23T01:43:05;27.00;;;9.13;;
70707;SDS011;58277;47.316;18.908;2022-11-23T01:48:00;23.35;;;9.15;;
70707;SDS011;58277;47.316;18.908;2022-11-23T01:50:24;23.52;;;8.70;;
70707;SDS011;58277;47.316;18.908;2022-11-23T01:52:47;22.83;;;8.18;;
70707;SDS011;58277;47.316;18.908;2022-11-23T01:55:10;20.30;;;8.50;;
70707;SDS011;58277;47.316;18.908;2022-11-23T01:57:35;20.63;;;8.40;;
70707;SDS011;58277;47.316;18.908;2022-11-23T02:00:02;24.40;;;9.00;;
70707;SDS011;58277;47.316;18.908;2022-11-23T02:02:34;23.75;;;8.75;;
70707;SDS011;58277;47.316;18.908;2022-11-23T02:05:01;23.25;;;8.75;;
70707;SDS011;58277;47.316;18.908;2022-11-23T02:07:25;22.07;;;9.00;;
70707;SDS011;58277;47.316;18.908;2022-11-23T02:09:48;26.30;;;9.60;;
70707;SDS011;58277;47.316;18.908;2022-11-23T02:12:12;19.45;;;7.85;;
70707;SDS011;58277;47.316;18.908;2022-11-23T02:14:37;23.65;;;8.55;;
70707;SDS011;58277;47.316;18.908;2022-11-23T02:17:00;22.35;;;8.32;;
70707;SDS011;58277;47.316;18.908;2022-11-23T02:19:26;19.60;;;7.43;;
70707;SDS011;58277;47.316;18.908;2022-11-23T02:21:59;23.77;;;9.25;;
70707;SDS011;58277;47.316;18.908;2022-11-23T02:24:24;19.67;;;7.53;;
70707;SDS011;58277;47.316;18.908;2022-11-23T02:26:54;23.13;;;8.65;;
70707;SDS011;58277;47.316;18.908;2022-11-23T02:31:41;20.63;;;8.90;;
70707;SDS011;58277;47.316;18.908;2022-11-23T02:34:03;16.88;;;7.40;;
70707;SDS011;58277;47.316;18.908;2022-11-23T02:41:54;13.73;;;5.78;;
70707;SDS011;58277;47.316;18.908;2022-11-23T02:46:50;18.30;;;6.50;;
70707;SDS011;58277;47.316;18.908;2022-11-23T02:49:14;18.88;;;6.82;;
70707;SDS011;58277;47.316;18.908;2022-11-23T02:51:37;15.60;;;6.00;;
70707;SDS011;58277;47.316;18.908;2022-11-23T02:54:00;17.40;;;6.88;;
70707;SDS011;58277;47.316;18.908;2022-11-23T02:56:22;16.83;;;7.00;;
70707;SDS011;58277;47.316;18.908;2022-11-23T02:58:45;17.65;;;6.85;;
70707;SDS011;58277;47.316;18.908;2022-11-23T03:01:08;17.83;;;7.43;;
70707;SDS011;58277;47.316;18.908;2022-11-23T03:03:31;17.23;;;7.68;;
70707;SDS011;58277;47.316;18.908;2022-11-23T03:05:56;19.73;;;7.00;;
70707;SDS011;58277;47.316;18.908;2022-11-23T03:08:19;14.33;;;6.10;;
70707;SDS011;58277;47.316;18.908;2022-11-23T03:10:42;16.13;;;6.80;;
70707;SDS011;58277;47.316;18.908;2022-11-23T03:13:05;16.88;;;7.25;;
70707;SDS011;58277;47.316;18.908;2022-11-23T03:15:29;15.70;;;6.28;;
70707;SDS011;58277;47.316;18.908;2022-11-23T03:17:56;16.40;;;7.10;;
70707;SDS011;58277;47.316;18.908;2022-11-23T03:20:19;15.83;;;6.17;;
70707;SDS011;58277;47.316;18.908;2022-11-23T03:22:44;15.80;;;7.10;;
70707;SDS011;58277;47.316;18.908;2022-11-23T03:25:09;18.35;;;7.82;;
70707;SDS011;58277;47.316;18.908;2022-11-23T03:27:33;20.52;;;7.32;;
70707;SDS011;58277;47.316;18.908;2022-11-23T03:29:57;17.27;;;7.30;;
70707;SDS011;58277;47.316;18.908;2022-11-23T03:32:21;14.20;;;6.07;;
70707;SDS011;58277;47.316;18.908;2022-11-23T03:34:47;16.85;;;7.00;;
70707;SDS011;58277;47.316;18.908;2022-11-23T03:37:11;16.73;;;6.80;;
70707;SDS011;58277;47.316;18.908;2022-11-23T03:39:34;12.55;;;5.47;;
70707;SDS011;58277;47.316;18.908;2022-11-23T03:42:15;17.33;;;6.70;;
70707;SDS011;58277;47.316;18.908;2022-11-23T03:44:39;15.90;;;6.37;;
70707;SDS011;58277;47.316;18.908;2022-11-23T03:47:02;12.60;;;5.10;;
70707;SDS011;58277;47.316;18.908;2022-11-23T03:49:27;13.80;;;6.30;;
70707;SDS011;58277;47.316;18.908;2022-11-23T03:51:51;15.77;;;6.18;;
70707;SDS011;58277;47.316;18.908;2022-11-23T03:54:13;15.63;;;6.78;;
70707;SDS011;58277;47.316;18.908;2022-11-23T03:56:36;14.20;;;6.07;;
70707;SDS011;58277;47.316;18.908;2022-11-23T03:58:59;14.32;;;5.53;;
70707;SDS011;58277;47.316;18.908;2022-11-23T04:01:22;15.60;;;6.55;;
70707;SDS011;58277;47.316;18.908;2022-11-23T04:04:03;11.65;;;5.40;;
70707;SDS011;58277;47.316;18.908;2022-11-23T04:06:49;14.00;;;5.60;;
70707;SDS011;58277;47.316;18.908;2022-11-23T04:09:21;14.60;;;5.67;;
70707;SDS011;58277;47.316;18.908;2022-11-23T04:11:59;10.65;;;4.53;;
70707;SDS011;58277;47.316;18.908;2022-11-23T04:14:21;13.95;;;5.82;;
70707;SDS011;58277;47.316;18.908;2022-11-23T04:16:45;16.13;;;6.72;;
70707;SDS011;58277;47.316;18.908;2022-11-23T04:19:08;15.48;;;6.35;;
70707;SDS011;58277;47.316;18.908;2022-11-23T04:21:30;13.50;;;6.30;;
70707;SDS011;58277;47.316;18.908;2022-11-23T04:23:53;16.85;;;6.78;;
70707;SDS011;58277;47.316;18.908;2022-11-23T04:26:16;16.70;;;7.00;;
70707;SDS011;58277;47.316;18.908;2022-11-23T04:28:40;14.65;;;6.40;;
70707;SDS011;58277;47.316;18.908;2022-11-23T04:31:03;13.45;;;5.57;;
70707;SDS011;58277;47.316;18.908;2022-11-23T04:33:35;10.00;;;4.37;;
70707;SDS011;58277;47.316;18.908;2022-11-23T04:35:58;14.68;;;6.07;;
70707;SDS011;58277;47.316;18.908;2022-11-23T04:38:21;16.75;;;6.47;;
70707;SDS011;58277;47.316;18.908;2022-11-23T04:40:45;15.13;;;6.45;;
70707;SDS011;58277;47.316;18.908;2022-11-23T04:43:10;14.40;;;6.38;;
70707;SDS011;58277;47.316;18.908;2022-11-23T04:45:36;13.47;;;6.03;;
70707;SDS011;58277;47.316;18.908;2022-11-23T04:48:03;16.38;;;6.05;;
70707;SDS011;58277;47.316;18.908;2022-11-23T04:50:27;13.15;;;6.63;;
70707;SDS011;58277;47.316;18.908;2022-11-23T04:52:51;12.65;;;5.63;;
70707;SDS011;58277;47.316;18.908;2022-11-23T04:55:19;11.35;;;4.68;;
70707;SDS011;58277;47.316;18.908;2022-11-23T04:57:49;12.93;;;5.80;;
70707;SDS011;58277;47.316;18.908;2022-11-23T05:00:12;13.77;;;6.07;;
70707;SDS011;58277;47.316;18.908;2022-11-23T05:02:35;12.93;;;5.00;;
70707;SDS011;58277;47.316;18.908;2022-11-23T05:05:17;14.60;;;6.03;;
70707;SDS011;58277;47.316;18.908;2022-11-23T05:07:40;13.45;;;5.80;;
70707;SDS011;58277;47.316;18.908;2022-11-23T05:10:03;12.40;;;5.70;;
70707;SDS011;58277;47.316;18.908;2022-11-23T05:12:29;14.45;;;6.07;;
70707;SDS011;58277;47.316;18.908;2022-11-23T05:14:53;12.73;;;5.32;;
70707;SDS011;58277;47.316;18.908;2022-11-23T05:17:21;14.05;;;6.20;;
70707;SDS011;58277;47.316;18.908;2022-11-23T05:19:47;10.38;;;4.68;;
70707;SDS011;58277;47.316;18.908;2022-11-23T05:22:10;12.00;;;4.87;;
70707;SDS011;58277;47.316;18.908;2022-11-23T05:27:20;12.57;;;5.28;;
70707;SDS011;58277;47.316;18.908;2022-11-23T05:30:03;14.02;;;6.40;;
70707;SDS011;58277;47.316;18.908;2022-11-23T05:32:26;13.95;;;5.60;;
70707;SDS011;58277;47.316;18.908;2022-11-23T05:34:54;14.13;;;5.43;;
70707;SDS011;58277;47.316;18.908;2022-11-23T05:37:19;13.38;;;5.68;;
70707;SDS011;58277;47.316;18.908;2022-11-23T05:39:54;12.10;;;5.15;;
70707;SDS011;58277;47.316;18.908;2022-11-23T05:42:18;15.02;;;6.00;;
70707;SDS011;58277;47.316;18.908;2022-11-23T05:44:41;13.25;;;5.60;;
70707;SDS011;58277;47.316;18.908;2022-11-23T05:47:14;16.03;;;6.27;;
70707;SDS011;58277;47.316;18.908;2022-11-23T05:49:36;14.55;;;5.88;;
70707;SDS011;58277;47.316;18.908;2022-11-23T05:52:00;13.60;;;5.63;;
70707;SDS011;58277;47.316;18.908;2022-11-23T05:54:24;14.52;;;5.43;;
70707;SDS011;58277;47.316;18.908;2022-11-23T05:57:03;13.55;;;5.85;;
70707;SDS011;58277;47.316;18.908;2022-11-23T05:59:45;13.57;;;5.60;;
70707;SDS011;58277;47.316;18.908;2022-11-23T06:02:14;12.70;;;5.97;;
70707;SDS011;58277;47.316;18.908;2022-11-23T06:04:37;12.15;;;5.65;;
70707;SDS011;58277;47.316;18.908;2022-11-23T06:07:04;12.00;;;5.53;;
70707;SDS011;58277;47.316;18.908;2022-11-23T06:09:38;14.13;;;6.03;;
70707;SDS011;58277;47.316;18.908;2022-11-23T06:12:04;12.00;;;5.30;;
70707;SDS011;58277;47.316;18.908;2022-11-23T06:14:28;12.77;;;4.70;;
70707;SDS011;58277;47.316;18.908;2022-11-23T06:16:51;13.20;;;5.63;;
70707;SDS011;58277;47.316;18.908;2022-11-23T06:19:28;13.65;;;5.93;;
70707;SDS011;58277;47.316;18.908;2022-11-23T06:21:52;15.10;;;6.05;;
70707;SDS011;58277;47.316;18.908;2022-11-23T06:24:16;13.33;;;5.87;;
70707;SDS011;58277;47.316;18.908;2022-11-23T06:26:39;11.20;;;5.32;;
70707;SDS011;58277;47.316;18.908;2022-11-23T06:29:02;13.45;;;5.13;;
70707;SDS011;58277;47.316;18.908;2022-11-23T06:31:25;13.15;;;5.55;;
70707;SDS011;58277;47.316;18.908;2022-11-23T06:33:47;13.15;;;6.13;;
70707;SDS011;58277;47.316;18.908;2022-11-23T06:36:10;16.87;;;6.87;;
70707;SDS011;58277;47.316;18.908;2022-11-23T06:38:39;12.80;;;5.97;;
70707;SDS011;58277;47.316;18.908;2022-11-23T06:41:07;13.85;;;5.70;;
70707;SDS011;58277;47.316;18.908;2022-11-23T06:43:36;13.20;;;5.63;;
70707;SDS011;58277;47.316;18.908;2022-11-23T06:46:01;16.02;;;6.40;;
70707;SDS011;58277;47.316;18.908;2022-11-23T06:48:29;11.20;;;5.27;;
70707;SDS011;58277;47.316;18.908;2022-11-23T06:50:56;10.68;;;4.65;;
70707;SDS011;58277;47.316;18.908;2022-11-23T06:53:25;13.15;;;6.00;;
70707;SDS011;58277;47.316;18.908;2022-11-23T06:56:12;16.30;;;6.05;;
70707;SDS011;58277;47.316;18.908;2022-11-23T06:58:41;14.85;;;6.18;;
70707;SDS011;58277;47.316;18.908;2022-11-23T07:01:15;14.83;;;5.80;;
70707;SDS011;58277;47.316;18.908;2022-11-23T07:03:58;12.63;;;6.03;;
70707;SDS011;58277;47.316;18.908;2022-11-23T07:06:33;14.80;;;6.38;;
70707;SDS011;58277;47.316;18.908;2022-11-23T07:09:01;13.25;;;6.30;;
70707;SDS011;58277;47.316;18.908;2022-11-23T07:11:43;14.30;;;6.28;;
70707;SDS011;58277;47.316;18.908;2022-11-23T07:14:07;14.83;;;6.20;;
70707;SDS011;58277;47.316;18.908;2022-11-23T07:16:32;15.10;;;6.45;;
70707;SDS011;58277;47.316;18.908;2022-11-23T07:18:56;14.15;;;6.45;;
70707;SDS011;58277;47.316;18.908;2022-11-23T07:21:20;12.00;;;4.93;;
70707;SDS011;58277;47.316;18.908;2022-11-23T07:23:44;12.25;;;5.22;;
70707;SDS011;58277;47.316;18.908;2022-11-23T07:26:07;14.47;;;6.27;;
70707;SDS011;58277;47.316;18.908;2022-11-23T07:28:30;14.38;;;6.35;;
70707;SDS011;58277;47.316;18.908;2022-11-23T07:30:53;14.38;;;6.10;;
70707;SDS011;58277;47.316;18.908;2022-11-23T07:33:16;12.93;;;6.35;;
70707;SDS011;58277;47.316;18.908;2022-11-23T07:35:40;12.70;;;5.97;;
70707;SDS011;58277;47.316;18.908;2022-11-23T07:38:04;14.70;;;6.33;;
70707;SDS011;58277;47.316;18.908;2022-11-23T07:40:37;15.20;;;5.95;;
70707;SDS011;58277;47.316;18.908;2022-11-23T07:43:07;11.00;;;5.30;;
70707;SDS011;58277;47.316;18.908;2022-11-23T07:45:32;13.77;;;6.13;;
70707;SDS011;58277;47.316;18.908;2022-11-23T07:50:38;13.13;;;6.27;;
70707;SDS011;58277;47.316;18.908;2022-11-23T07:53:02;13.63;;;6.72;;
70707;SDS011;58277;47.316;18.908;2022-11-23T07:55:30;14.10;;;6.72;;
70707;SDS011;58277;47.316;18.908;2022-11-23T07:57:55;12.63;;;6.00;;
70707;SDS011;58277;47.316;18.908;2022-11-23T08:00:23;13.60;;;6.40;;
70707;SDS011;58277;47.316;18.908;2022-11-23T08:02:48;15.37;;;6.30;;
70707;SDS011;58277;47.316;18.908;2022-11-23T08:05:32;16.40;;;6.10;;
70707;SDS011;58277;47.316;18.908;2022-11-23T08:08:01;14.35;;;6.30;;
70707;SDS011;58277;47.316;18.908;2022-11-23T08:10:27;16.92;;;6.40;;
70707;SDS011;58277;47.316;18.908;2022-11-23T08:12:51;15.57;;;6.90;;
70707;SDS011;58277;47.316;18.908;2022-11-23T08:15:14;17.00;;;6.63;;
70707;SDS011;58277;47.316;18.908;2022-11-23T08:17:36;17.23;;;6.38;;
70707;SDS011;58277;47.316;18.908;2022-11-23T08:19:59;14.50;;;7.13;;
70707;SDS011;58277;47.316;18.908;2022-11-23T08:22:22;14.80;;;6.45;;
70707;SDS011;58277;47.316;18.908;2022-11-23T08:24:45;13.55;;;5.00;;
70707;SDS011;58277;47.316;18.908;2022-11-23T08:27:09;17.60;;;6.97;;
70707;SDS011;58277;47.316;18.908;2022-11-23T08:29:32;15.05;;;6.40;;
70707;SDS011;58277;47.316;18.908;2022-11-23T08:31:54;13.07;;;6.32;;
70707;SDS011;58277;47.316;18.908;2022-11-23T08:34:17;16.38;;;7.05;;
70707;SDS011;58277;47.316;18.908;2022-11-23T08:36:40;18.58;;;8.07;;
70707;SDS011;58277;47.316;18.908;2022-11-23T08:39:03;21.07;;;8.60;;
70707;SDS011;58277;47.316;18.908;2022-11-23T08:41:26;15.35;;;7.60;;
70707;SDS011;58277;47.316;18.908;2022-11-23T08:43:49;17.75;;;7.95;;
70707;SDS011;58277;47.316;18.908;2022-11-23T08:46:13;14.73;;;6.20;;
70707;SDS011;58277;47.316;18.908;2022-11-23T08:48:36;16.27;;;6.90;;
70707;SDS011;58277;47.316;18.908;2022-11-23T08:51:00;17.50;;;7.80;;
70707;SDS011;58277;47.316;18.908;2022-11-23T08:53:23;17.92;;;7.75;;
70707;SDS011;58277;47.316;18.908;2022-11-23T08:55:46;18.65;;;8.68;;
70707;SDS011;58277;47.316;18.908;2022-11-23T08:58:09;19.95;;;9.65;;
70707;SDS011;58277;47.316;18.908;2022-11-23T09:00:35;17.52;;;7.95;;
70707;SDS011;58277;47.316;18.908;2022-11-23T09:02:58;18.97;;;8.33;;
70707;SDS011;58277;47.316;18.908;2022-11-23T09:05:21;19.95;;;8.10;;
70707;SDS011;58277;47.316;18.908;2022-11-23T09:07:43;24.05;;;9.50;;
70707;SDS011;58277;47.316;18.908;2022-11-23T09:10:06;16.83;;;8.45;;
70707;SDS011;58277;47.316;18.908;2022-11-23T09:12:34;19.35;;;8.38;;
70707;SDS011;58277;47.316;18.908;2022-11-23T09:14:57;17.67;;;7.93;;
70707;SDS011;58277;47.316;18.908;2022-11-23T09:17:20;17.70;;;7.78;;
70707;SDS011;58277;47.316;18.908;2022-11-23T09:19:43;16.92;;;8.00;;
70707;SDS011;58277;47.316;18.908;2022-11-23T09:22:06;19.25;;;8.13;;
70707;SDS011;58277;47.316;18.908;2022-11-23T09:24:28;18.60;;;8.32;;
70707;SDS011;58277;47.316;18.908;2022-11-23T09:26:52;19.67;;;8.40;;
70707;SDS011;58277;47.316;18.908;2022-11-23T09:29:14;21.20;;;9.20;;
70707;SDS011;58277;47.316;18.908;2022-11-23T09:31:37;19.75;;;9.02;;
70707;SDS011;58277;47.316;18.908;2022-11-23T09:34:00;20.58;;;8.73;;
70707;SDS011;58277;47.316;18.908;2022-11-23T09:36:23;26.85;;;9.23;;
70707;SDS011;58277;47.316;18.908;2022-11-23T09:38:45;21.37;;;8.37;;
70707;SDS011;58277;47.316;18.908;2022-11-23T09:49:14;18.30;;;8.15;;
70707;SDS011;58277;47.316;18.908;2022-11-23T09:51:39;22.77;;;8.57;;
70707;SDS011;58277;47.316;18.908;2022-11-23T09:54:04;19.65;;;8.65;;
70707;SDS011;58277;47.316;18.908;2022-11-23T09:56:37;20.08;;;8.65;;
70707;SDS011;58277;47.316;18.908;2022-11-23T10:01:42;17.98;;;8.57;;
70707;SDS011;58277;47.316;18.908;2022-11-23T10:04:05;17.67;;;8.30;;
70707;SDS011;58277;47.316;18.908;2022-11-23T10:06:29;19.20;;;8.75;;
70707;SDS011;58277;47.316;18.908;2022-11-23T10:13:55;20.23;;;9.20;;
70707;SDS011;58277;47.316;18.908;2022-11-23T10:16:36;18.67;;;8.43;;
70707;SDS011;58277;47.316;18.908;2022-11-23T10:21:51;20.98;;;8.68;;
70707;SDS011;58277;47.316;18.908;2022-11-23T10:24:28;18.33;;;8.55;;
70707;SDS011;58277;47.316;18.908;2022-11-23T10:26:56;19.80;;;8.82;;
70707;SDS011;58277;47.316;18.908;2022-11-23T10:29:30;17.27;;;8.17;;
70707;SDS011;58277;47.316;18.908;2022-11-23T10:31:59;18.30;;;7.95;;
70707;SDS011;58277;47.316;18.908;2022-11-23T10:37:15;16.77;;;8.10;;
70707;SDS011;58277;47.316;18.908;2022-11-23T10:39:39;18.98;;;8.07;;
70707;SDS011;58277;47.316;18.908;2022-11-23T10:42:08;21.77;;;9.27;;
70707;SDS011;58277;47.316;18.908;2022-11-23T10:44:44;14.27;;;7.72;;
70707;SDS011;58277;47.316;18.908;2022-11-23T10:47:09;17.83;;;8.50;;
70707;SDS011;58277;47.316;18.908;2022-11-23T10:49:32;17.58;;;7.97;;
70707;SDS011;58277;47.316;18.908;2022-11-23T10:52:00;16.38;;;8.00;;
70707;SDS011;58277;47.316;18.908;2022-11-23T10:54:26;16.67;;;8.40;;
70707;SDS011;58277;47.316;18.908;2022-11-23T10:57:02;16.73;;;8.00;;
70707;SDS011;58277;47.316;18.908;2022-11-23T10:59:43;17.88;;;7.93;;
70707;SDS011;58277;47.316;18.908;2022-11-23T11:02:22;16.55;;;7.80;;
70707;SDS011;58277;47.316;18.908;2022-11-23T11:04:45;16.25;;;7.88;;
70707;SDS011;58277;47.316;18.908;2022-11-23T11:07:19;18.40;;;8.20;;
70707;SDS011;58277;47.316;18.908;2022-11-23T11:09:49;18.20;;;9.05;;
70707;SDS011;58277;47.316;18.908;2022-11-23T11:12:15;14.23;;;7.70;;
70707;SDS011;58277;47.316;18.908;2022-11-23T11:14:53;18.70;;;8.30;;
70707;SDS011;58277;47.316;18.908;2022-11-23T11:17:33;16.92;;;7.93;;
70707;SDS011;58277;47.316;18.908;2022-11-23T11:19:57;15.20;;;7.13;;
70707;SDS011;58277;47.316;18.908;2022-11-23T11:24:57;14.23;;;7.22;;
70707;SDS011;58277;47.316;18.908;2022-11-23T11:27:23;13.70;;;7.07;;
70707;SDS011;58277;47.316;18.908;2022-11-23T11:29:50;16.70;;;7.65;;
70707;SDS011;58277;47.316;18.908;2022-11-23T11:32:20;15.60;;;7.37;;
70707;SDS011;58277;47.316;18.908;2022-11-23T11:39:56;14.18;;;7.70;;
70707;SDS011;58277;47.316;18.908;2022-11-23T11:42:39;17.50;;;8.23;;
70707;SDS011;58277;47.316;18.908;2022-11-23T11:45:06;15.30;;;8.23;;
70707;SDS011;58277;47.316;18.908;2022-11-23T11:47:42;15.57;;;8.18;;
70707;SDS011;58277;47.316;18.908;2022-11-23T11:50:29;17.42;;;8.55;;
70707;SDS011;58277;47.316;18.908;2022-11-23T11:53:03;17.10;;;8.48;;
70707;SDS011;58277;47.316;18.908;2022-11-23T11:55:35;14.85;;;7.47;;
70707;SDS011;58277;47.316;18.908;2022-11-23T11:58:04;15.37;;;7.77;;
70707;SDS011;58277;47.316;18.908;2022-11-23T12:00:37;17.90;;;7.95;;
70707;SDS011;58277;47.316;18.908;2022-11-23T12:03:29;13.52;;;7.22;;
70707;SDS011;58277;47.316;18.908;2022-11-23T12:06:03;14.75;;;6.93;;
70707;SDS011;58277;47.316;18.908;2022-11-23T12:11:25;23.93;;;13.37;;
70707;SDS011;58277;47.316;18.908;2022-11-23T12:13:58;17.23;;;7.90;;
70707;SDS011;58277;47.316;18.908;2022-11-23T12:16:36;16.75;;;7.80;;
70707;SDS011;58277;47.316;18.908;2022-11-23T12:19:16;16.58;;;8.60;;
70707;SDS011;58277;47.316;18.908;2022-11-23T12:25:07;16.00;;;8.67;;
70707;SDS011;58277;47.316;18.908;2022-11-23T12:30:19;16.58;;;9.05;;
70707;SDS011;58277;47.316;18.908;2022-11-23T12:32:54;13.38;;;6.60;;
70707;SDS011;58277;47.316;18.908;2022-11-23T12:40:47;15.48;;;7.85;;
70707;SDS011;58277;47.316;18.908;2022-11-23T12:46:20;16.50;;;8.57;;
70707;SDS011;58277;47.316;18.908;2022-11-23T12:52:14;15.87;;;8.20;;
70707;SDS011;58277;47.316;18.908;2022-11-23T13:00:28;16.02;;;8.15;;
70707;SDS011;58277;47.316;18.908;2022-11-23T13:08:11;15.85;;;7.35;;
70707;SDS011;58277;47.316;18.908;2022-11-23T13:16:55;16.38;;;7.57;;
70707;SDS011;58277;47.316;18.908;2022-11-23T13:21:56;18.05;;;8.52;;
70707;SDS011;58277;47.316;18.908;2022-11-23T13:24:23;16.60;;;8.38;;
70707;SDS011;58277;47.316;18.908;2022-11-23T13:26:47;15.00;;;7.25;;
70707;SDS011;58277;47.316;18.908;2022-11-23T13:29:50;14.95;;;7.40;;
70707;SDS011;58277;47.316;18.908;2022-11-23T13:33:23;14.37;;;7.33;;
70707;SDS011;58277;47.316;18.908;2022-11-23T13:40:35;15.02;;;7.57;;
70707;SDS011;58277;47.316;18.908;2022-11-23T13:43:03;15.60;;;7.50;;
70707;SDS011;58277;47.316;18.908;2022-11-23T13:45:27;15.57;;;8.00;;
70707;SDS011;58277;47.316;18.908;2022-11-23T13:51:00;13.68;;;6.57;;
70707;SDS011;58277;47.316;18.908;2022-11-23T13:53:31;15.52;;;7.40;;
70707;SDS011;58277;47.316;18.908;2022-11-23T13:55:57;16.48;;;7.68;;
70707;SDS011;58277;47.316;18.908;2022-11-23T13:58:37;16.80;;;8.60;;
70707;SDS011;58277;47.316;18.908;2022-11-23T14:01:01;18.50;;;9.88;;
70707;SDS011;58277;47.316;18.908;2022-11-23T14:09:24;16.23;;;8.23;;
70707;SDS011;58277;47.316;18.908;2022-11-23T14:12:13;13.37;;;6.77;;
70707;SDS011;58277;47.316;18.908;2022-11-23T14:20:07;16.50;;;8.13;;
70707;SDS011;58277;47.316;18.908;2022-11-23T14:28:20;20.48;;;9.45;;
70707;SDS011;58277;47.316;18.908;2022-11-23T14:30:55;17.42;;;8.15;;
70707;SDS011;58277;47.316;18.908;2022-11-23T14:33:55;18.33;;;8.13;;
70707;SDS011;58277;47.316;18.908;2022-11-23T14:41:55;17.48;;;7.72;;
70707;SDS011;58277;47.316;18.908;2022-11-23T14:44:26;16.00;;;7.07;;
70707;SDS011;58277;47.316;18.908;2022-11-23T14:47:02;15.07;;;7.88;;
70707;SDS011;58277;47.316;18.908;2022-11-23T14:49:29;15.10;;;7.70;;
70707;SDS011;58277;47.316;18.908;2022-11-23T14:51:52;18.10;;;8.00;;
70707;SDS011;58277;47.316;18.908;2022-11-23T14:54:15;15.63;;;8.10;;
70707;SDS011;58277;47.316;18.908;2022-11-23T14:56:41;17.17;;;8.52;;
70707;SDS011;58277;47.316;18.908;2022-11-23T14:59:08;19.63;;;9.20;;
70707;SDS011;58277;47.316;18.908;2022-11-23T15:01:50;19.48;;;8.85;;
70707;SDS011;58277;47.316;18.908;2022-11-23T15:04:33;21.87;;;9.63;;
70707;SDS011;58277;47.316;18.908;2022-11-23T15:07:03;21.13;;;10.57;;
70707;SDS011;58277;47.316;18.908;2022-11-23T15:09:38;16.13;;;8.52;;
70707;SDS011;58277;47.316;18.908;2022-11-23T15:12:24;18.33;;;8.55;;
70707;SDS011;58277;47.316;18.908;2022-11-23T15:14:49;18.73;;;9.32;;
70707;SDS011;58277;47.316;18.908;2022-11-23T15:17:14;20.87;;;10.23;;
70707;SDS011;58277;47.316;18.908;2022-11-23T15:19:38;19.42;;;9.10;;
70707;SDS011;58277;47.316;18.908;2022-11-23T15:22:02;18.02;;;8.75;;
70707;SDS011;58277;47.316;18.908;2022-11-23T15:24:25;17.98;;;9.13;;
70707;SDS011;58277;47.316;18.908;2022-11-23T15:26:48;17.90;;;9.30;;
70707;SDS011;58277;47.316;18.908;2022-11-23T15:32:50;22.30;;;10.60;;
70707;SDS011;58277;47.316;18.908;2022-11-23T15:35:05;19.25;;;9.20;;
70707;SDS011;58277;47.316;18.908;2022-11-23T15:37:35;24.20;;;10.32;;
70707;SDS011;58277;47.316;18.908;2022-11-23T15:40:04;20.20;;;10.00;;
70707;SDS011;58277;47.316;18.908;2022-11-23T15:42:28;22.97;;;10.57;;
70707;SDS011;58277;47.316;18.908;2022-11-23T15:44:51;21.33;;;10.45;;
70707;SDS011;58277;47.316;18.908;2022-11-23T15:47:21;20.38;;;10.43;;
70707;SDS011;58277;47.316;18.908;2022-11-23T15:49:49;23.45;;;9.55;;
70707;SDS011;58277;47.316;18.908;2022-11-23T15:52:15;18.92;;;9.48;;
70707;SDS011;58277;47.316;18.908;2022-11-23T15:54:40;18.00;;;9.20;;
70707;SDS011;58277;47.316;18.908;2022-11-23T15:57:08;18.33;;;9.15;;
70707;SDS011;58277;47.316;18.908;2022-11-23T15:59:56;35.50;;;16.17;;
70707;SDS011;58277;47.316;18.908;2022-11-23T16:02:22;35.90;;;15.60;;
70707;SDS011;58277;47.316;18.908;2022-11-23T16:04:47;31.70;;;13.88;;
70707;SDS011;58277;47.316;18.908;2022-11-23T16:07:22;20.57;;;10.10;;
70707;SDS011;58277;47.316;18.908;2022-11-23T16:12:28;20.23;;;9.70;;
70707;SDS011;58277;47.316;18.908;2022-11-23T16:14:53;18.63;;;9.25;;
70707;SDS011;58277;47.316;18.908;2022-11-23T16:17:26;18.02;;;8.98;;
70707;SDS011;58277;47.316;18.908;2022-11-23T16:19:51;17.17;;;8.30;;
70707;SDS011;58277;47.316;18.908;2022-11-23T16:22:23;18.52;;;8.80;;
70707;SDS011;58277;47.316;18.908;2022-11-23T16:24:50;17.90;;;8.60;;
70707;SDS011;58277;47.316;18.908;2022-11-23T16:27:20;16.95;;;8.45;;